createdAt,value
2022-12-23T00:00:28.529Z,11.53
2022-12-23T00:02:55.333Z,11.54
2022-12-23T00:05:22.175Z,11.53
2022-12-23T00:07:48.895Z,11.56
2022-12-23T00:10:15.648Z,11.54
2022-12-23T00:13:00.710Z,11.53
2022-12-23T00:15:27.505Z,11.54
2022-12-23T00:17:54.161Z,11.53
2022-12-23T00:20:20.884Z,11.53
2022-12-23T00:23:05.602Z,11.54
2022-12-23T00:25:41.272Z,11.53
2022-12-23T00:28:11.808Z,11.51
2022-12-23T00:30:50.066Z,11.51
2022-12-23T00:33:22.249Z,11.52
2022-12-23T00:35:49.939Z,11.52
2022-12-23T00:38:17.678Z,11.51
2022-12-23T00:41:03.001Z,11.51
2022-12-23T00:43:29.534Z,11.51
2022-12-23T00:45:56.168Z,11.50
2022-12-23T00:48:41.107Z,11.48
2022-12-23T00:51:07.787Z,11.49
2022-12-23T00:53:34.391Z,11.47
2022-12-23T00:56:01.006Z,11.51
2022-12-23T00:58:27.704Z,11.48
2022-12-23T01:01:13.135Z,11.48
2022-12-23T01:03:58.626Z,11.50
2022-12-23T01:06:25.223Z,11.47
2022-12-23T01:08:51.789Z,11.48
2022-12-23T01:11:18.500Z,11.50
2022-12-23T01:13:45.128Z,11.49
2022-12-23T01:16:17.136Z,11.49
2022-12-23T01:18:44.728Z,11.46
2022-12-23T01:21:12.215Z,11.49
2022-12-23T01:23:38.901Z,11.48
2022-12-23T01:26:07.317Z,11.49
2022-12-23T01:28:35.110Z,11.48
2022-12-23T01:31:04.215Z,11.49
2022-12-23T01:33:32.295Z,11.47
2022-12-23T01:36:09.171Z,11.47
2022-12-23T01:38:35.903Z,11.49
2022-12-23T01:41:02.515Z,11.48
2022-12-23T01:43:48.071Z,11.48
2022-12-23T01:46:15.400Z,11.46
2022-12-23T01:48:45.409Z,11.48
2022-12-23T01:51:18.706Z,11.47
2022-12-23T01:53:50.526Z,11.47
2022-12-23T01:56:37.297Z,11.46
2022-12-23T01:59:34.229Z,11.43
2022-12-23T02:02:20.269Z,11.42
2022-12-23T02:04:48.736Z,11.44
2022-12-23T02:07:35.633Z,11.41
2022-12-23T02:10:03.792Z,11.43
2022-12-23T02:12:33.302Z,11.43
2022-12-23T02:15:37.160Z,11.43
2022-12-23T02:18:22.685Z,11.42
2022-12-23T02:21:10.820Z,11.42
2022-12-23T02:23:49.498Z,11.41
2022-12-23T02:26:28.134Z,11.40
2022-12-23T02:29:06.683Z,11.41
2022-12-23T02:31:51.727Z,11.40
2022-12-23T02:34:26.432Z,11.39
2022-12-23T02:36:58.810Z,11.39
2022-12-23T02:39:59.481Z,11.40
2022-12-23T02:42:33.676Z,11.40
2022-12-23T02:45:08.430Z,11.40
2022-12-23T02:47:39.675Z,11.39
2022-12-23T02:50:12.092Z,11.40
2022-12-23T02:52:41.643Z,11.37
2022-12-23T02:55:19.812Z,11.39
2022-12-23T02:57:50.882Z,11.38
2022-12-23T03:00:18.405Z,11.38
2022-12-23T03:02:45.381Z,11.36
2022-12-23T03:05:26.428Z,11.37
2022-12-23T03:07:55.522Z,11.36
2022-12-23T03:10:53.921Z,11.37
2022-12-23T03:13:47.376Z,11.35
2022-12-23T03:16:17.081Z,11.35
2022-12-23T03:18:49.115Z,11.36
2022-12-23T03:21:34.516Z,11.34
2022-12-23T03:24:16.752Z,11.35
2022-12-23T03:26:52.488Z,11.35
2022-12-23T03:29:26.660Z,11.33
2022-12-23T03:31:57.249Z,11.33
2022-12-23T03:34:29.960Z,11.33
2022-12-23T03:37:00.579Z,11.33
2022-12-23T03:39:33.065Z,11.33
2022-12-23T03:42:06.373Z,11.31
2022-12-23T03:44:37.328Z,11.34
2022-12-23T03:47:12.119Z,11.33
2022-12-23T03:49:51.806Z,11.35
2022-12-23T03:52:24.213Z,11.32
2022-12-23T03:54:54.766Z,11.33
2022-12-23T03:57:28.722Z,11.32
2022-12-23T03:59:55.976Z,11.33
2022-12-23T04:02:37.876Z,11.35
2022-12-23T04:05:17.328Z,11.33
2022-12-23T04:07:51.552Z,11.31
2022-12-23T04:10:19.498Z,11.33
2022-12-23T04:12:46.164Z,11.31
2022-12-23T04:15:13.584Z,11.32
2022-12-23T04:17:40.443Z,11.31
2022-12-23T04:20:07.641Z,11.32
2022-12-23T04:22:34.260Z,11.32
2022-12-23T04:25:00.800Z,11.31
2022-12-23T04:27:27.486Z,11.33
2022-12-23T04:29:54.109Z,11.31
2022-12-23T04:32:20.850Z,11.33
2022-12-23T04:34:47.423Z,11.32
2022-12-23T04:37:14.041Z,11.30
2022-12-23T04:39:40.628Z,11.29
2022-12-23T04:42:07.326Z,11.31
2022-12-23T04:44:33.997Z,11.31
2022-12-23T04:47:00.750Z,11.30
2022-12-23T04:49:27.321Z,11.30
2022-12-23T04:51:53.912Z,11.31
2022-12-23T04:54:20.552Z,11.28
2022-12-23T04:56:47.133Z,11.28
2022-12-23T04:59:13.697Z,11.28
2022-12-23T05:01:42.396Z,11.28
2022-12-23T05:04:10.272Z,11.28
2022-12-23T05:06:37.816Z,11.28
2022-12-23T05:09:05.505Z,11.28
2022-12-23T05:11:34.975Z,11.28
2022-12-23T05:14:05.168Z,11.27
2022-12-23T05:16:32.176Z,11.27
2022-12-23T05:18:58.788Z,11.26
2022-12-23T05:21:25.410Z,11.25
2022-12-23T05:23:52.255Z,11.26
2022-12-23T05:26:19.280Z,11.24
2022-12-23T05:28:45.898Z,11.26
2022-12-23T05:31:13.658Z,11.24
2022-12-23T05:33:40.669Z,11.24
2022-12-23T05:36:07.855Z,11.23
2022-12-23T05:38:34.665Z,11.23
2022-12-23T05:41:02.378Z,11.23
2022-12-23T05:43:29.295Z,11.21
2022-12-23T05:45:56.038Z,11.22
2022-12-23T05:48:23.028Z,11.23
2022-12-23T05:50:53.650Z,11.24
2022-12-23T05:53:20.908Z,11.24
2022-12-23T05:55:47.995Z,11.22
2022-12-23T05:58:14.967Z,11.22
2022-12-23T06:00:41.689Z,11.23
2022-12-23T06:03:08.519Z,11.22
2022-12-23T06:05:37.792Z,11.21
2022-12-23T06:08:05.106Z,11.20
2022-12-23T06:10:31.769Z,11.21
2022-12-23T06:12:58.828Z,11.21
2022-12-23T06:15:25.536Z,11.21
2022-12-23T06:17:52.238Z,11.21
2022-12-23T06:20:20.957Z,11.22
2022-12-23T06:22:48.155Z,11.21
2022-12-23T06:25:15.238Z,11.22
2022-12-23T06:27:41.842Z,11.22
2022-12-23T06:30:09.041Z,11.21
2022-12-23T06:32:38.607Z,11.21
2022-12-23T06:35:06.825Z,11.19
2022-12-23T06:37:35.722Z,11.21
2022-12-23T06:40:02.638Z,11.21
2022-12-23T06:42:29.539Z,11.19
2022-12-23T06:44:56.191Z,11.20
2022-12-23T06:47:23.071Z,11.21
2022-12-23T06:49:49.739Z,11.20
2022-12-23T06:52:16.574Z,11.20
2022-12-23T06:54:43.226Z,11.19
2022-12-23T06:57:09.855Z,11.21
2022-12-23T06:59:36.581Z,11.21
2022-12-23T07:02:04.125Z,11.19
2022-12-23T07:04:31.149Z,11.20
2022-12-23T07:06:58.777Z,11.19
2022-12-23T07:09:26.282Z,11.20
2022-12-23T07:11:53.981Z,11.21
2022-12-23T07:14:20.945Z,11.19
2022-12-23T07:16:48.304Z,11.19
2022-12-23T07:19:15.113Z,11.20
2022-12-23T07:21:41.884Z,11.20
2022-12-23T07:24:09.057Z,11.18
2022-12-23T07:26:36.004Z,11.20
2022-12-23T07:29:02.724Z,11.20
2022-12-23T07:31:29.553Z,11.18
2022-12-23T07:33:56.247Z,11.18
2022-12-23T07:36:23.237Z,11.19
2022-12-23T07:38:51.522Z,11.18
2022-12-23T07:41:18.391Z,11.17
2022-12-23T07:43:45.426Z,11.19
2022-12-23T07:46:13.228Z,11.19
2022-12-23T07:48:41.898Z,11.18
2022-12-23T07:51:08.874Z,11.19
2022-12-23T07:53:35.902Z,11.18
2022-12-23T07:56:02.757Z,11.17
2022-12-23T07:58:29.541Z,11.20
2022-12-23T08:01:08.094Z,11.19
2022-12-23T08:03:35.746Z,11.18
2022-12-23T08:06:08.593Z,11.19
2022-12-23T08:08:36.136Z,11.18
2022-12-23T08:11:05.060Z,11.18
2022-12-23T08:13:34.498Z,11.19
2022-12-23T08:16:02.889Z,11.19
2022-12-23T08:18:31.149Z,11.20
2022-12-23T08:21:00.291Z,11.21
2022-12-23T08:23:28.750Z,11.21
2022-12-23T08:26:07.043Z,11.21
2022-12-23T08:28:35.301Z,11.21
2022-12-23T08:31:10.725Z,11.20
2022-12-23T08:33:39.287Z,11.21
2022-12-23T08:36:08.271Z,11.21
2022-12-23T08:38:36.315Z,11.21
2022-12-23T08:41:08.050Z,11.20
2022-12-23T08:43:36.148Z,11.20
2022-12-23T08:46:03.460Z,11.21
2022-12-23T08:48:30.245Z,11.22
2022-12-23T08:50:57.013Z,11.22
2022-12-23T08:53:23.624Z,11.22
2022-12-23T08:55:50.419Z,11.23
2022-12-23T08:58:17.100Z,11.23
2022-12-23T09:00:43.851Z,11.23
2022-12-23T09:03:10.765Z,11.23
2022-12-23T09:05:42.247Z,11.23
2022-12-23T09:08:09.760Z,11.22
2022-12-23T09:10:43.783Z,11.24
2022-12-23T09:13:15.016Z,11.24
2022-12-23T09:15:47.039Z,11.23
2022-12-23T09:18:13.734Z,11.23
2022-12-23T09:20:40.481Z,11.23
2022-12-23T09:23:07.633Z,11.22
2022-12-23T09:25:36.664Z,11.24
2022-12-23T09:28:04.694Z,11.26
2022-12-23T09:30:31.577Z,11.23
2022-12-23T09:32:58.259Z,11.25
2022-12-23T09:35:25.084Z,11.26
2022-12-23T09:37:51.775Z,11.28
2022-12-23T09:40:21.164Z,11.30
2022-12-23T09:43:17.400Z,11.29
2022-12-23T09:46:02.414Z,11.29
2022-12-23T09:48:36.006Z,11.30
2022-12-23T09:51:04.238Z,11.30
2022-12-23T09:53:49.733Z,11.31
2022-12-23T09:56:19.753Z,11.32
2022-12-23T09:58:58.955Z,11.32
2022-12-23T10:01:32.723Z,11.33
2022-12-23T10:03:59.937Z,11.34
2022-12-23T10:06:29.177Z,11.35
2022-12-23T10:09:01.322Z,11.36
2022-12-23T10:11:53.393Z,11.37
2022-12-23T10:14:25.013Z,11.38
2022-12-23T10:17:00.405Z,11.41
2022-12-23T10:19:46.804Z,11.43
2022-12-23T10:22:16.568Z,11.43
2022-12-23T10:24:46.192Z,11.42
2022-12-23T10:27:39.024Z,11.44
2022-12-23T10:30:51.295Z,11.41
2022-12-23T10:33:18.829Z,11.43
2022-12-23T10:35:48.535Z,11.44
2022-12-23T10:38:40.272Z,11.45
2022-12-23T10:41:46.748Z,11.45
2022-12-23T10:44:13.317Z,11.45
2022-12-23T10:46:51.783Z,11.47
2022-12-23T10:49:21.183Z,11.51
2022-12-23T10:51:55.342Z,11.52
2022-12-23T10:54:34.257Z,11.54
2022-12-23T10:57:01.863Z,11.54
2022-12-23T10:59:31.911Z,11.51
2022-12-23T11:02:13.457Z,11.51
2022-12-23T11:04:46.350Z,11.50
2022-12-23T11:07:43.520Z,11.52
2022-12-23T11:10:07.482Z,11.51
2022-12-23T11:12:42.476Z,11.51
2022-12-23T11:15:33.989Z,11.53
2022-12-23T11:18:04.693Z,11.52
2022-12-23T11:20:32.850Z,11.52
2022-12-23T11:23:02.332Z,11.50
2022-12-23T11:25:44.235Z,11.52
2022-12-23T11:28:10.777Z,11.53
2022-12-23T11:30:57.325Z,11.52
2022-12-23T11:33:31.690Z,11.52
2022-12-23T11:36:06.750Z,11.52
2022-12-23T11:38:35.643Z,11.51
2022-12-23T11:41:05.257Z,11.49
2022-12-23T11:43:34.066Z,11.51
2022-12-23T11:46:24.060Z,11.51
2022-12-23T11:49:05.487Z,11.51
2022-12-23T11:51:32.287Z,11.51
2022-12-23T11:54:03.181Z,11.51
2022-12-23T11:56:39.012Z,11.52
2022-12-23T11:59:26.463Z,11.52
2022-12-23T12:01:53.866Z,11.53
2022-12-23T12:04:24.285Z,11.52
2022-12-23T12:06:56.394Z,11.54
2022-12-23T12:09:24.963Z,11.51
2022-12-23T12:12:03.769Z,11.55
2022-12-23T12:14:54.579Z,11.54
2022-12-23T12:17:45.614Z,11.53
2022-12-23T12:20:22.480Z,11.54
2022-12-23T12:23:11.755Z,11.53
2022-12-23T12:25:44.320Z,11.55
2022-12-23T12:28:18.186Z,11.53
2022-12-23T12:30:57.862Z,11.55
2022-12-23T12:33:36.098Z,11.56
2022-12-23T12:36:27.015Z,11.57
2022-12-23T12:38:57.019Z,11.53
2022-12-23T12:41:33.253Z,11.56
2022-12-23T12:44:37.421Z,11.57
2022-12-23T12:47:36.234Z,11.56
2022-12-23T12:50:31.320Z,11.57
2022-12-23T12:53:05.918Z,11.56
2022-12-23T12:55:37.883Z,11.60
2022-12-23T12:58:04.336Z,11.59
2022-12-23T13:00:44.390Z,11.60
2022-12-23T13:03:32.187Z,11.62
2022-12-23T13:06:29.904Z,11.64
2022-12-23T13:09:36.590Z,11.63
2022-12-23T13:12:23.035Z,11.64
2022-12-23T13:14:49.636Z,11.61
2022-12-23T13:17:33.615Z,11.63
2022-12-23T13:20:09.191Z,11.65
2022-12-23T13:22:37.331Z,11.66
2022-12-23T13:25:29.542Z,11.65
2022-12-23T13:28:00.934Z,11.67
2022-12-23T13:30:36.495Z,11.68
2022-12-23T13:33:09.633Z,11.68
2022-12-23T13:36:04.954Z,11.70
2022-12-23T13:39:18.176Z,11.71
2022-12-23T13:41:51.618Z,11.70
2022-12-23T13:44:20.742Z,11.71
2022-12-23T13:47:21.345Z,11.71
2022-12-23T13:49:54.036Z,11.72
2022-12-23T13:52:30.367Z,11.72
2022-12-23T13:54:57.099Z,11.70
2022-12-23T13:57:44.957Z,11.77
2022-12-23T14:00:17.585Z,11.79
2022-12-23T14:03:02.726Z,11.81
2022-12-23T14:05:33.901Z,11.84
2022-12-23T14:08:05.118Z,11.87
2022-12-23T14:10:33.311Z,11.88
2022-12-23T14:13:05.727Z,11.92
2022-12-23T14:15:51.967Z,11.87
2022-12-23T14:18:39.114Z,11.92
2022-12-23T14:21:42.495Z,11.90
2022-12-23T14:24:24.062Z,11.87
2022-12-23T14:27:21.533Z,11.87
2022-12-23T14:29:51.021Z,11.86
2022-12-23T14:32:26.687Z,11.85
2022-12-23T14:35:18.646Z,11.84
2022-12-23T14:38:05.075Z,11.83
2022-12-23T14:40:37.710Z,11.82
2022-12-23T14:43:45.507Z,11.82
2022-12-23T14:46:35.459Z,11.80
2022-12-23T14:49:37.049Z,11.77
2022-12-23T14:51:51.060Z,11.78
2022-12-23T14:54:36.642Z,11.78
2022-12-23T14:57:19.245Z,11.79
2022-12-23T15:00:01.415Z,11.78
2022-12-23T15:02:36.466Z,11.78
2022-12-23T15:05:04.692Z,11.76
2022-12-23T15:07:35.252Z,11.76
2022-12-23T15:10:05.838Z,11.77
2022-12-23T15:12:39.441Z,11.79
2022-12-23T15:15:19.353Z,11.79
2022-12-23T15:17:48.062Z,11.80
2022-12-23T15:20:22.974Z,11.80
2022-12-23T15:22:50.666Z,11.80
2022-12-23T15:25:28.785Z,11.82
2022-12-23T15:28:01.588Z,11.80
2022-12-23T15:30:34.146Z,11.80
2022-12-23T15:33:02.576Z,11.80
2022-12-23T15:35:33.456Z,11.78
2022-12-23T15:38:01.946Z,11.77
2022-12-23T15:40:34.652Z,11.77
2022-12-23T15:43:02.617Z,11.74
2022-12-23T15:45:36.069Z,11.76
2022-12-23T15:48:04.610Z,11.82
2022-12-23T15:50:40.487Z,11.85
2022-12-23T15:53:10.047Z,11.86
2022-12-23T15:55:39.826Z,11.85
2022-12-23T15:58:06.731Z,11.87
2022-12-23T16:00:50.737Z,11.85
2022-12-23T16:03:37.595Z,11.83
2022-12-23T16:06:10.617Z,11.84
2022-12-23T16:08:38.001Z,11.82
2022-12-23T16:11:13.933Z,11.82
2022-12-23T16:13:58.048Z,11.81
2022-12-23T16:16:43.246Z,11.78
2022-12-23T16:19:49.052Z,11.79
2022-12-23T16:22:30.191Z,11.77
2022-12-23T16:24:56.773Z,11.74
2022-12-23T16:27:34.743Z,11.77
2022-12-23T16:30:04.880Z,11.74
2022-12-23T16:32:31.730Z,11.74
2022-12-23T16:35:10.350Z,11.74
2022-12-23T16:37:36.987Z,11.76
2022-12-23T16:40:13.307Z,11.77
2022-12-23T16:42:40.067Z,11.75
2022-12-23T16:45:07.402Z,11.77
2022-12-23T16:47:34.013Z,11.76
2022-12-23T16:50:00.719Z,11.77
2022-12-23T16:52:27.435Z,11.75
2022-12-23T16:54:54.072Z,11.75
2022-12-23T16:57:20.657Z,11.76
2022-12-23T16:59:47.645Z,11.75
2022-12-23T17:02:21.453Z,11.77
2022-12-23T17:04:48.207Z,11.78
2022-12-23T17:07:14.943Z,11.79
2022-12-23T17:09:41.746Z,11.77
2022-12-23T17:12:10.196Z,11.77
2022-12-23T17:14:37.020Z,11.77
2022-12-23T17:17:13.806Z,11.76
2022-12-23T17:19:40.556Z,11.79
2022-12-23T17:22:13.175Z,11.81
2022-12-23T17:24:40.838Z,11.78
2022-12-23T17:27:16.571Z,11.79
2022-12-23T17:29:43.506Z,11.79
2022-12-23T17:32:16.566Z,11.76
2022-12-23T17:34:43.402Z,11.78
2022-12-23T17:37:19.435Z,11.77
2022-12-23T17:39:47.429Z,11.76
2022-12-23T17:42:25.433Z,11.78
2022-12-23T17:44:52.698Z,11.79
2022-12-23T17:47:22.375Z,11.78
2022-12-23T17:49:49.770Z,11.78
2022-12-23T17:52:21.517Z,11.78
2022-12-23T17:54:50.125Z,11.79
2022-12-23T17:57:23.380Z,11.75
2022-12-23T17:59:52.115Z,11.77
2022-12-23T18:02:29.519Z,11.75
2022-12-23T18:04:56.494Z,11.77
2022-12-23T18:07:23.292Z,11.76
2022-12-23T18:09:50.924Z,11.76
2022-12-23T18:12:35.379Z,11.76
2022-12-23T18:15:03.026Z,11.75
2022-12-23T18:17:29.583Z,11.74
2022-12-23T18:19:56.212Z,11.72
2022-12-23T18:22:25.980Z,11.73
2022-12-23T18:24:58.939Z,11.72
2022-12-23T18:27:26.006Z,11.72
2022-12-23T18:29:52.762Z,11.73
2022-12-23T18:32:22.523Z,11.73
2022-12-23T18:34:50.131Z,11.75
2022-12-23T18:37:17.536Z,11.78
2022-12-23T18:39:44.432Z,11.79
2022-12-23T18:42:16.394Z,11.79
2022-12-23T18:44:44.966Z,11.81
2022-12-23T18:47:12.917Z,11.81
2022-12-23T18:49:40.119Z,11.81
2022-12-23T18:52:12.670Z,11.83
2022-12-23T18:54:40.094Z,11.83
2022-12-23T18:57:07.133Z,11.81
2022-12-23T18:59:37.548Z,11.81
2022-12-23T19:02:04.837Z,11.81
2022-12-23T19:04:31.762Z,11.82
2022-12-23T19:06:58.468Z,11.82
2022-12-23T19:09:25.788Z,11.82
2022-12-23T19:11:53.877Z,11.83
2022-12-23T19:14:22.310Z,11.82
2022-12-23T19:16:51.963Z,11.81
2022-12-23T19:19:20.001Z,11.82
2022-12-23T19:21:46.723Z,11.83
2022-12-23T19:24:14.206Z,11.83
2022-12-23T19:26:40.877Z,11.83
2022-12-23T19:29:08.539Z,11.84
2022-12-23T19:31:35.284Z,11.85
2022-12-23T19:34:02.218Z,11.85
2022-12-23T19:36:29.106Z,11.86
2022-12-23T19:38:57.056Z,11.85
2022-12-23T19:41:23.830Z,11.88
2022-12-23T19:43:50.815Z,11.87
2022-12-23T19:46:17.661Z,11.87
2022-12-23T19:49:19.480Z,11.89
2022-12-23T19:51:47.140Z,11.89
2022-12-23T19:54:13.951Z,11.88
2022-12-23T19:56:40.645Z,11.87
2022-12-23T19:59:07.452Z,11.86
2022-12-23T20:01:34.190Z,11.84
2022-12-23T20:04:00.931Z,11.81
2022-12-23T20:06:33.448Z,11.80
2022-12-23T20:09:04.187Z,11.79
2022-12-23T20:11:36.925Z,11.79
2022-12-23T20:14:04.212Z,11.77
2022-12-23T20:16:31.282Z,11.77
2022-12-23T20:18:58.121Z,11.77
2022-12-23T20:21:24.813Z,11.79
2022-12-23T20:23:51.722Z,11.78
2022-12-23T20:26:19.375Z,11.80
2022-12-23T20:28:46.645Z,11.81
2022-12-23T20:31:31.553Z,11.82
2022-12-23T20:33:59.114Z,11.81
2022-12-23T20:36:32.381Z,11.85
2022-12-23T20:38:59.596Z,11.83
2022-12-23T20:41:29.165Z,11.84
2022-12-23T20:44:33.081Z,11.85
2022-12-23T20:46:42.750Z,11.85
2022-12-23T20:49:09.533Z,11.85
2022-12-23T20:51:37.174Z,11.85
2022-12-23T20:54:03.983Z,11.87
2022-12-23T20:56:31.637Z,11.87
2022-12-23T20:58:59.436Z,11.87
2022-12-23T21:01:35.433Z,11.86
2022-12-23T21:04:05.404Z,11.86
2022-12-23T21:06:32.771Z,11.87
2022-12-23T21:09:00.648Z,11.87
2022-12-23T21:11:29.513Z,11.87
2022-12-23T21:14:01.132Z,11.86
2022-12-23T21:16:32.752Z,11.89
2022-12-23T21:18:59.857Z,11.89
2022-12-23T21:21:28.192Z,11.91
2022-12-23T21:23:56.941Z,11.91
2022-12-23T21:26:26.231Z,11.93
2022-12-23T21:28:55.164Z,11.92
2022-12-23T21:31:23.459Z,11.92
2022-12-23T21:33:51.428Z,11.91
2022-12-23T21:36:20.902Z,11.94
2022-12-23T21:38:48.713Z,11.93
2022-12-23T21:41:18.464Z,11.93
2022-12-23T21:43:45.400Z,11.89
2022-12-23T21:46:14.892Z,11.91
2022-12-23T21:48:42.932Z,11.91
2022-12-23T21:51:17.745Z,11.93
2022-12-23T21:53:46.466Z,11.92
2022-12-23T21:56:16.102Z,11.93
2022-12-23T21:58:43.980Z,11.92
2022-12-23T22:01:14.202Z,11.94
2022-12-23T22:03:42.595Z,11.93
2022-12-23T22:06:15.012Z,11.92
2022-12-23T22:08:42.793Z,11.91
2022-12-23T22:11:18.963Z,11.91
2022-12-23T22:13:46.294Z,11.90
2022-12-23T22:16:16.225Z,11.90
2022-12-23T22:18:43.615Z,11.89
2022-12-23T22:21:13.416Z,11.87
2022-12-23T22:23:40.102Z,11.87
2022-12-23T22:26:07.864Z,11.88
2022-12-23T22:28:36.779Z,11.89
2022-12-23T22:31:32.766Z,11.90
2022-12-23T22:33:59.439Z,11.91
2022-12-23T22:36:26.573Z,11.91
2022-12-23T22:38:55.861Z,11.91
2022-12-23T22:41:23.888Z,11.91
2022-12-23T22:43:50.733Z,11.93
2022-12-23T22:46:18.489Z,11.92
2022-12-23T22:48:45.951Z,11.93
2022-12-23T22:51:21.419Z,11.91
2022-12-23T22:53:48.421Z,11.91
2022-12-23T22:56:16.585Z,11.92
2022-12-23T22:58:43.282Z,11.89
2022-12-23T23:01:21.466Z,11.90
2022-12-23T23:03:51.163Z,11.87
2022-12-23T23:06:18.807Z,11.87
2022-12-23T23:08:45.538Z,11.87
2022-12-23T23:11:12.308Z,11.88
2022-12-23T23:13:38.887Z,11.89
2022-12-23T23:16:05.797Z,11.88
2022-12-23T23:18:32.526Z,11.86
2022-12-23T23:20:59.941Z,11.88
2022-12-23T23:23:26.614Z,11.88
2022-12-23T23:25:53.272Z,11.86
2022-12-23T23:28:19.963Z,11.86
2022-12-23T23:30:46.783Z,11.86
2022-12-23T23:33:13.508Z,11.88
2022-12-23T23:35:40.522Z,11.86
2022-12-23T23:38:07.832Z,11.86
2022-12-23T23:40:34.570Z,11.87
2022-12-23T23:43:01.329Z,11.87
2022-12-23T23:45:28.384Z,11.84
2022-12-23T23:47:55.337Z,11.84
2022-12-23T23:50:22.706Z,11.85
2022-12-23T23:52:49.302Z,11.84
2022-12-23T23:55:16.083Z,11.83
2022-12-23T23:57:42.704Z,11.83
